Pilot, Virginia
Current Conditions -  °F | °C
As of 7:15 PM on Saturday 25 Oct 2014 (Local Time) from KBCB Reporting Station
Clear Clear  
Wind Chill: 61°   Ceiling: Unl
Heat Index: 61°   Visibility: 10mi
Dew Point: 48°   Wind: 5mph
Humidity: 63%   Direction: 300°WNW
Pressure: 29.96"   Gusts: NA
Location:  37.05°N, 80.36°W
Report Text: KBCB 252315Z AUTO 30004KT 10SM CLR 16/09 A2996 RMK AO2
Loading
Personal Weather Stations






























Interactive Weather Map New forecast layout! Learn more

10-Day Weather Forecast

Advertisements
Track Severe Weather on mobile